createdAt,value
2017-08-14T00:01:58.401Z,13.60
2017-08-14T00:04:26.764Z,13.50
2017-08-14T00:06:54.439Z,13.50
2017-08-14T00:09:22.063Z,13.40
2017-08-14T00:11:49.865Z,13.40
2017-08-14T00:14:17.524Z,13.40
2017-08-14T00:16:45.259Z,13.40
2017-08-14T00:19:13.039Z,13.30
2017-08-14T00:21:40.867Z,13.30
2017-08-14T00:24:08.476Z,13.30
2017-08-14T00:26:36.084Z,13.20
2017-08-14T00:29:03.753Z,13.20
2017-08-14T00:31:31.384Z,13.20
2017-08-14T00:33:59.021Z,13.20
2017-08-14T00:36:26.858Z,13.10
2017-08-14T00:38:54.479Z,13.20
2017-08-14T00:41:22.472Z,13.20
2017-08-14T00:43:50.164Z,13.20
2017-08-14T00:46:17.809Z,13.10
2017-08-14T00:48:45.440Z,13.10
2017-08-14T00:51:13.378Z,13.10
2017-08-14T00:53:41.005Z,13.10
2017-08-14T00:56:08.653Z,13.10
2017-08-14T00:58:36.933Z,13.10
2017-08-14T01:01:04.558Z,13.00
2017-08-14T01:03:32.182Z,13.00
2017-08-14T01:05:59.851Z,12.90
2017-08-14T01:08:27.473Z,12.90
2017-08-14T01:10:55.097Z,12.90
2017-08-14T01:13:22.955Z,12.90
2017-08-14T01:15:50.568Z,12.80
2017-08-14T01:18:18.186Z,12.90
2017-08-14T01:20:45.857Z,12.80
2017-08-14T01:23:13.491Z,12.90
2017-08-14T01:25:41.208Z,12.90
2017-08-14T01:28:08.880Z,12.80
2017-08-14T01:30:36.488Z,12.80
2017-08-14T01:33:04.108Z,12.80
2017-08-14T01:35:31.767Z,12.80
2017-08-14T01:37:59.380Z,12.80
2017-08-14T01:40:27.012Z,12.80
2017-08-14T01:42:54.908Z,12.80
2017-08-14T01:45:22.762Z,12.80
2017-08-14T01:47:50.378Z,12.90
2017-08-14T01:50:18.292Z,12.90
2017-08-14T01:52:45.906Z,12.90
2017-08-14T01:55:13.521Z,12.90
2017-08-14T01:57:41.283Z,12.90
2017-08-14T02:00:08.924Z,12.90
2017-08-14T02:02:36.544Z,13.00
2017-08-14T02:05:04.204Z,13.00
2017-08-14T02:07:31.816Z,13.00
2017-08-14T02:09:59.440Z,13.00
2017-08-14T02:12:27.880Z,13.00
2017-08-14T02:14:55.502Z,13.00
2017-08-14T02:17:23.314Z,13.00
2017-08-14T02:19:51.085Z,13.00
2017-08-14T02:22:18.733Z,13.00
2017-08-14T02:24:46.363Z,13.00
2017-08-14T02:27:14.071Z,13.00
2017-08-14T02:29:41.693Z,13.00
2017-08-14T02:32:09.368Z,12.90
2017-08-14T02:34:37.055Z,12.90
2017-08-14T02:37:04.847Z,12.90
2017-08-14T02:39:32.469Z,12.90
2017-08-14T02:42:00.152Z,12.90
2017-08-14T02:44:27.765Z,12.90
2017-08-14T02:46:55.382Z,12.90
2017-08-14T02:49:23.028Z,12.90
2017-08-14T02:51:50.644Z,12.90
2017-08-14T02:54:18.265Z,12.80
2017-08-14T02:56:45.924Z,12.80
2017-08-14T02:59:13.528Z,12.80
2017-08-14T03:01:41.900Z,12.80
2017-08-14T03:04:10.335Z,12.70
2017-08-14T03:06:37.948Z,12.70
2017-08-14T03:09:05.564Z,12.70
2017-08-14T03:11:33.226Z,12.60
2017-08-14T03:14:00.842Z,12.60
2017-08-14T03:16:28.461Z,12.60
2017-08-14T03:18:56.137Z,12.60
2017-08-14T03:21:23.767Z,12.60
2017-08-14T03:23:51.388Z,12.60
2017-08-14T03:26:19.045Z,12.50
2017-08-14T03:28:46.668Z,12.50
2017-08-14T03:31:14.438Z,12.50
2017-08-14T03:33:42.097Z,12.50
2017-08-14T03:36:10.373Z,12.50
2017-08-14T03:38:37.992Z,12.50
2017-08-14T03:41:05.898Z,12.50
2017-08-14T03:43:33.506Z,12.50
2017-08-14T03:46:01.125Z,12.50
2017-08-14T03:48:28.799Z,12.50
2017-08-14T03:50:56.420Z,12.40
2017-08-14T03:53:24.329Z,12.40
2017-08-14T03:55:52.004Z,12.40
2017-08-14T03:58:20.164Z,12.40
2017-08-14T04:00:47.915Z,12.30
2017-08-14T04:03:15.588Z,12.20
2017-08-14T04:05:43.197Z,12.20
2017-08-14T04:08:11.576Z,12.20
2017-08-14T04:10:40.017Z,12.20
2017-08-14T04:13:07.770Z,12.20
2017-08-14T04:15:35.538Z,12.30
2017-08-14T04:18:03.302Z,12.30
2017-08-14T04:20:31.072Z,12.30
2017-08-14T04:22:58.835Z,12.30
2017-08-14T04:25:26.525Z,12.20
2017-08-14T04:27:54.749Z,12.20
2017-08-14T04:30:22.377Z,12.20
2017-08-14T04:32:50.817Z,12.20
2017-08-14T04:35:18.445Z,12.20
2017-08-14T04:37:46.068Z,12.20
2017-08-14T04:40:13.735Z,12.20
2017-08-14T04:42:41.571Z,12.20
2017-08-14T04:45:09.199Z,12.20
2017-08-14T04:47:36.876Z,12.20
2017-08-14T04:50:04.498Z,12.30
2017-08-14T04:52:32.880Z,12.40
2017-08-14T04:55:01.480Z,12.50
2017-08-14T04:57:29.097Z,12.50
2017-08-14T04:59:56.715Z,12.50
2017-08-14T05:02:24.985Z,12.50
2017-08-14T05:04:52.690Z,12.60
2017-08-14T05:07:20.311Z,12.60
2017-08-14T05:09:47.974Z,12.70
2017-08-14T05:12:15.584Z,12.70
2017-08-14T05:14:43.197Z,12.80
2017-08-14T05:17:10.847Z,12.90
2017-08-14T05:19:39.232Z,13.10
2017-08-14T05:22:07.629Z,13.30
2017-08-14T05:24:35.301Z,13.20
2017-08-14T05:27:02.925Z,13.40
2017-08-14T05:29:30.709Z,13.60
2017-08-14T05:31:58.393Z,13.80
2017-08-14T05:34:26.008Z,14.10
2017-08-14T05:36:53.634Z,14.40
2017-08-14T05:39:21.310Z,14.70
2017-08-14T05:41:48.931Z,14.90
2017-08-14T05:44:16.557Z,15.10
2017-08-14T05:46:45.044Z,15.40
2017-08-14T05:49:13.561Z,15.50
2017-08-14T05:51:41.174Z,15.70
2017-08-14T05:54:08.836Z,15.80
2017-08-14T05:56:36.757Z,16.00
2017-08-14T05:59:04.983Z,16.00
2017-08-14T06:01:32.676Z,16.20
2017-08-14T06:04:00.313Z,16.50
2017-08-14T06:06:28.736Z,16.70
2017-08-14T06:08:56.381Z,16.90
2017-08-14T06:11:24.768Z,17.10
2017-08-14T06:13:53.175Z,17.20
2017-08-14T06:16:20.904Z,17.20
2017-08-14T06:18:48.528Z,17.40
2017-08-14T06:21:16.154Z,17.50
2017-08-14T06:23:43.861Z,17.80
2017-08-14T06:26:11.480Z,18.00
2017-08-14T06:28:39.105Z,18.20
2017-08-14T06:31:06.796Z,18.30
2017-08-14T06:33:34.667Z,18.50
2017-08-14T06:36:02.289Z,18.60
2017-08-14T06:38:30.275Z,18.70
2017-08-14T06:40:57.903Z,19.10
2017-08-14T06:43:25.520Z,19.10
2017-08-14T06:45:53.190Z,19.40
2017-08-14T06:48:20.813Z,19.50
2017-08-14T06:50:48.437Z,19.40
2017-08-14T06:53:16.093Z,19.60
2017-08-14T06:55:43.712Z,19.70
2017-08-14T06:58:11.342Z,19.70
2017-08-14T07:00:39.031Z,19.90
2017-08-14T07:03:06.664Z,20.10
2017-08-14T07:05:34.277Z,20.20
2017-08-14T07:08:01.984Z,20.30
2017-08-14T07:10:29.882Z,20.50
2017-08-14T07:12:57.503Z,20.40
2017-08-14T07:15:25.713Z,20.50
2017-08-14T07:17:53.326Z,20.30
2017-08-14T07:20:20.947Z,20.50
2017-08-14T07:22:48.608Z,20.70
2017-08-14T07:25:16.860Z,20.90
2017-08-14T07:27:44.485Z,21.00
2017-08-14T07:30:12.157Z,21.20
2017-08-14T07:32:40.072Z,21.40
2017-08-14T07:35:07.684Z,21.50
2017-08-14T07:37:35.393Z,21.40
2017-08-14T07:40:03.038Z,21.40
2017-08-14T07:42:30.649Z,21.60
2017-08-14T07:44:58.311Z,21.60
2017-08-14T07:47:26.693Z,21.80
2017-08-14T07:49:55.421Z,21.80
2017-08-14T07:52:23.103Z,21.80
2017-08-14T07:54:50.752Z,21.90
2017-08-14T07:57:18.733Z,22.10
2017-08-14T07:59:46.412Z,22.20
2017-08-14T08:02:14.049Z,22.30
2017-08-14T08:04:41.656Z,22.40
2017-08-14T08:07:10.124Z,22.30
2017-08-14T08:09:37.753Z,22.30
2017-08-14T08:12:05.392Z,22.30
2017-08-14T08:14:33.091Z,22.50
2017-08-14T08:17:00.708Z,22.50
2017-08-14T08:19:28.322Z,22.70
2017-08-14T08:21:56.009Z,22.70
2017-08-14T08:24:23.623Z,22.70
2017-08-14T08:26:51.240Z,22.90
2017-08-14T08:29:18.916Z,22.90
2017-08-14T08:31:46.570Z,23.00
2017-08-14T08:34:14.515Z,23.10
2017-08-14T08:36:42.196Z,23.30
2017-08-14T08:39:10.132Z,23.30
2017-08-14T08:41:37.748Z,23.50
2017-08-14T08:44:05.445Z,23.50
2017-08-14T08:46:33.064Z,23.40
2017-08-14T08:49:01.453Z,23.40
2017-08-14T08:51:30.155Z,23.60
2017-08-14T08:53:57.900Z,23.60
2017-08-14T08:56:26.284Z,23.40
2017-08-14T08:58:54.721Z,23.70
2017-08-14T09:01:22.355Z,23.60
2017-08-14T09:03:50.015Z,23.90
2017-08-14T09:06:17.704Z,24.20
2017-08-14T09:08:45.349Z,24.40
2017-08-14T09:11:13.005Z,24.40
2017-08-14T09:13:40.668Z,24.30
2017-08-14T09:16:08.298Z,24.50
2017-08-14T09:18:35.913Z,24.60
2017-08-14T09:21:03.582Z,24.60
2017-08-14T09:23:31.237Z,24.80
2017-08-14T09:25:58.896Z,24.70
2017-08-14T09:28:26.547Z,24.70
2017-08-14T09:30:54.163Z,24.70
2017-08-14T09:33:21.833Z,24.70
2017-08-14T09:35:50.226Z,24.70
2017-08-14T09:38:19.270Z,24.90
2017-08-14T09:40:46.949Z,24.90
2017-08-14T09:43:14.565Z,25.00
2017-08-14T09:45:42.191Z,25.00
2017-08-14T09:48:09.853Z,25.10
2017-08-14T09:50:37.486Z,25.20
2017-08-14T09:53:05.120Z,25.50
2017-08-14T09:55:33.118Z,25.70
2017-08-14T09:58:00.745Z,25.80
2017-08-14T10:00:28.355Z,25.90
2017-08-14T10:02:56.029Z,25.60
2017-08-14T10:05:23.664Z,25.60
2017-08-14T10:07:51.279Z,25.50
2017-08-14T10:10:18.938Z,25.50
2017-08-14T10:12:47.316Z,25.50
2017-08-14T10:15:15.695Z,25.40
2017-08-14T10:17:44.132Z,25.20
2017-08-14T10:20:11.756Z,25.10
2017-08-14T10:22:39.383Z,25.10
2017-08-14T10:25:07.048Z,25.00
2017-08-14T10:27:34.660Z,24.90
2017-08-14T10:30:02.280Z,25.00
2017-08-14T10:32:29.941Z,24.80
2017-08-14T10:34:57.558Z,24.60
2017-08-14T10:37:25.172Z,24.30
2017-08-14T10:39:53.044Z,24.20
2017-08-14T10:42:21.421Z,24.30
2017-08-14T10:44:49.804Z,24.40
2017-08-14T10:47:18.244Z,24.40
2017-08-14T10:49:46.005Z,24.40
2017-08-14T10:52:13.635Z,24.40
2017-08-14T10:54:41.330Z,24.40
2017-08-14T10:57:08.981Z,24.30
2017-08-14T10:59:36.602Z,24.30
2017-08-14T11:02:04.436Z,24.30
2017-08-14T11:04:32.248Z,24.30
2017-08-14T11:07:00.081Z,24.30
2017-08-14T11:09:27.836Z,24.20
2017-08-14T11:11:55.461Z,24.20
2017-08-14T11:14:23.074Z,24.20
2017-08-14T11:16:51.030Z,24.20
2017-08-14T11:19:18.655Z,24.30
2017-08-14T11:21:46.267Z,24.30
2017-08-14T11:24:14.333Z,24.40
2017-08-14T11:26:42.262Z,24.60
2017-08-14T11:29:09.896Z,24.80
2017-08-14T11:31:38.521Z,25.00
2017-08-14T11:34:06.308Z,25.00
2017-08-14T11:36:33.927Z,25.10
2017-08-14T11:39:01.592Z,25.20
2017-08-14T11:41:29.281Z,25.30
2017-08-14T11:43:56.900Z,25.30
2017-08-14T11:46:24.585Z,25.20
2017-08-14T11:48:52.205Z,25.20
2017-08-14T11:51:19.835Z,25.20
2017-08-14T11:53:47.519Z,25.20
2017-08-14T11:56:15.447Z,25.30
2017-08-14T11:58:43.351Z,25.30
2017-08-14T12:01:11.426Z,25.40
2017-08-14T12:03:39.042Z,25.30
2017-08-14T12:06:06.672Z,25.30
2017-08-14T12:08:34.351Z,25.30
2017-08-14T12:11:01.976Z,25.30
2017-08-14T12:13:29.639Z,25.30
2017-08-14T12:15:57.312Z,25.40
2017-08-14T12:18:25.172Z,25.40
2017-08-14T12:20:52.795Z,25.50
2017-08-14T12:23:20.773Z,25.50
2017-08-14T12:25:48.401Z,25.50
2017-08-14T12:28:16.024Z,25.50
2017-08-14T12:30:43.855Z,25.50
2017-08-14T12:33:11.468Z,25.50
2017-08-14T12:35:39.080Z,25.50
2017-08-14T12:38:06.742Z,25.60
2017-08-14T12:40:34.363Z,25.30
2017-08-14T12:43:01.993Z,25.40
2017-08-14T12:45:29.668Z,25.40
2017-08-14T12:47:57.520Z,25.40
2017-08-14T12:50:25.136Z,25.40
2017-08-14T12:52:52.819Z,25.50
2017-08-14T12:55:20.728Z,25.40
2017-08-14T12:57:48.345Z,25.50
2017-08-14T13:00:16.020Z,25.60
2017-08-14T13:02:43.633Z,25.60
2017-08-14T13:05:11.264Z,25.60
2017-08-14T13:07:38.931Z,25.80
2017-08-14T13:10:06.541Z,25.80
2017-08-14T13:12:34.160Z,25.80
2017-08-14T13:15:01.828Z,25.80
2017-08-14T13:17:29.458Z,25.80
2017-08-14T13:19:57.244Z,25.80
2017-08-14T13:22:25.297Z,25.80
2017-08-14T13:24:53.468Z,25.70
2017-08-14T13:27:21.080Z,25.70
2017-08-14T13:29:48.920Z,25.60
2017-08-14T13:32:16.540Z,25.60
2017-08-14T13:34:44.182Z,25.70
2017-08-14T13:37:12.196Z,25.80
2017-08-14T13:39:39.817Z,25.80
2017-08-14T13:42:07.466Z,25.90
2017-08-14T13:44:35.114Z,25.90
2017-08-14T13:47:02.732Z,25.90
2017-08-14T13:49:30.408Z,25.90
2017-08-14T13:51:58.021Z,25.80
2017-08-14T13:54:25.649Z,25.70
2017-08-14T13:56:53.330Z,25.70
2017-08-14T14:13:47.530Z,25.70
2017-08-14T14:16:15.174Z,25.70
2017-08-14T14:18:42.796Z,25.60
2017-08-14T14:21:10.469Z,25.50
2017-08-14T14:23:38.082Z,25.50
2017-08-14T14:26:05.700Z,25.50
2017-08-14T14:28:33.364Z,25.50
2017-08-14T14:31:00.982Z,25.50
2017-08-14T14:33:28.610Z,25.60
2017-08-14T14:35:56.282Z,25.60
2017-08-14T14:38:23.897Z,25.70
2017-08-14T14:40:51.515Z,25.60
2017-08-14T14:43:19.336Z,25.60
2017-08-14T14:45:46.962Z,25.50
2017-08-14T14:48:14.589Z,25.50
2017-08-14T14:50:42.289Z,25.50
2017-08-14T14:53:09.907Z,25.50
2017-08-14T14:55:37.529Z,25.60
2017-08-14T14:58:05.192Z,25.60
2017-08-14T15:00:33.104Z,25.60
2017-08-14T15:03:00.724Z,25.50
2017-08-14T15:05:28.713Z,25.40
2017-08-14T15:07:56.293Z,25.40
2017-08-14T15:10:23.932Z,25.40
2017-08-14T15:12:51.596Z,25.30
2017-08-14T15:15:19.208Z,25.40
2017-08-14T15:17:46.828Z,25.30
2017-08-14T15:20:14.718Z,25.30
2017-08-14T15:22:42.328Z,25.30
2017-08-14T15:25:09.938Z,25.20
2017-08-14T15:27:37.616Z,25.20
2017-08-14T15:30:05.228Z,25.10
2017-08-14T15:32:32.863Z,25.00
2017-08-14T15:35:00.524Z,25.00
2017-08-14T15:37:28.143Z,25.00
2017-08-14T15:39:55.780Z,25.00
2017-08-14T15:42:23.441Z,25.10
2017-08-14T15:44:51.052Z,25.10
2017-08-14T15:47:18.676Z,25.00
2017-08-14T15:49:46.645Z,25.00
2017-08-14T15:52:14.249Z,24.90
2017-08-14T15:54:41.860Z,25.00
2017-08-14T15:57:09.659Z,25.00
2017-08-14T15:59:37.273Z,24.90
2017-08-14T16:02:04.916Z,24.90
2017-08-14T16:04:32.585Z,24.90
2017-08-14T16:07:01.280Z,24.80
2017-08-14T16:09:29.664Z,24.80
2017-08-14T16:11:58.107Z,24.80
2017-08-14T16:14:25.769Z,24.80
2017-08-14T16:16:53.386Z,24.70
2017-08-14T16:19:32.862Z,24.60
2017-08-14T16:22:00.474Z,24.50
2017-08-14T16:24:28.852Z,24.30
2017-08-14T16:26:56.608Z,24.30
2017-08-14T16:29:24.999Z,24.20
2017-08-14T16:31:53.374Z,24.20
2017-08-14T16:34:21.827Z,24.10
2017-08-14T16:36:49.436Z,24.10
2017-08-14T16:39:17.056Z,24.10
2017-08-14T16:41:44.734Z,24.10
2017-08-14T16:44:12.358Z,24.00
2017-08-14T16:46:39.973Z,24.00
2017-08-14T16:49:08.404Z,24.00
2017-08-14T16:51:36.016Z,24.00
2017-08-14T16:54:03.633Z,23.90
2017-08-14T16:56:31.698Z,23.80
2017-08-14T16:58:59.338Z,23.80
2017-08-14T17:01:26.968Z,23.80
2017-08-14T17:03:55.370Z,23.80
2017-08-14T17:06:23.603Z,23.80
2017-08-14T17:08:51.358Z,23.80
2017-08-14T17:11:19.121Z,23.80
2017-08-14T17:13:46.779Z,23.80
2017-08-14T17:16:14.392Z,23.80
2017-08-14T17:18:42.966Z,23.80
2017-08-14T17:21:10.584Z,23.70
2017-08-14T17:23:39.151Z,23.70
2017-08-14T17:26:06.840Z,23.60
2017-08-14T17:28:34.460Z,23.60
2017-08-14T17:31:02.086Z,23.60
2017-08-14T17:33:29.741Z,23.70
2017-08-14T17:35:57.389Z,23.60
2017-08-14T17:38:25.124Z,23.50
2017-08-14T17:40:53.960Z,23.50
2017-08-14T17:43:24.097Z,23.50
2017-08-14T17:45:53.794Z,23.30
2017-08-14T17:48:23.075Z,23.30
2017-08-14T17:50:52.201Z,23.20
2017-08-14T17:53:22.451Z,23.10
2017-08-14T17:55:53.099Z,22.90
2017-08-14T17:58:21.486Z,22.90
2017-08-14T18:00:49.847Z,22.70
2017-08-14T18:03:18.954Z,22.60
2017-08-14T18:05:46.759Z,22.50
2017-08-14T18:08:15.443Z,22.50
2017-08-14T18:10:46.491Z,22.40
2017-08-14T18:13:17.497Z,22.40
2017-08-14T18:15:46.501Z,22.30
2017-08-14T18:18:14.402Z,22.30
2017-08-14T18:20:42.740Z,22.10
2017-08-14T18:23:10.545Z,22.10
2017-08-14T18:25:38.287Z,22.10
2017-08-14T18:28:06.442Z,22.00
2017-08-14T18:30:34.968Z,21.90
2017-08-14T18:33:03.173Z,21.90
2017-08-14T18:35:31.541Z,21.70
2017-08-14T18:38:00.097Z,21.60
2017-08-14T18:40:27.728Z,21.60
2017-08-14T18:42:55.382Z,21.50
2017-08-14T18:45:23.308Z,21.40
2017-08-14T18:47:51.553Z,21.30
2017-08-14T18:50:19.626Z,21.20
2017-08-14T18:52:47.605Z,21.10
2017-08-14T18:55:15.800Z,21.10
2017-08-14T18:57:43.443Z,21.00
2017-08-14T19:00:12.037Z,21.00
2017-08-14T19:02:39.902Z,20.90
2017-08-14T19:05:07.576Z,20.90
2017-08-14T19:07:36.305Z,20.90
2017-08-14T19:10:03.534Z,20.80
2017-08-14T19:12:31.917Z,20.80
2017-08-14T19:15:00.360Z,20.70
2017-08-14T19:17:28.015Z,20.70
2017-08-14T19:19:55.663Z,20.60
2017-08-14T19:22:24.206Z,20.50
2017-08-14T19:24:52.874Z,20.40
2017-08-14T19:27:21.955Z,20.20
2017-08-14T19:29:50.248Z,20.20
2017-08-14T19:32:18.614Z,20.10
2017-08-14T19:34:46.689Z,20.00
2017-08-14T19:37:14.569Z,20.00
2017-08-14T19:39:42.438Z,20.00
2017-08-14T19:42:10.349Z,20.00
2017-08-14T19:44:38.424Z,19.90
2017-08-14T19:47:06.057Z,19.80
2017-08-14T19:49:34.017Z,19.80
2017-08-14T19:52:01.851Z,19.70
2017-08-14T19:54:29.733Z,19.60
2017-08-14T19:56:57.437Z,19.50
2017-08-14T19:59:25.558Z,19.40
2017-08-14T20:01:53.172Z,19.30
2017-08-14T20:04:20.784Z,19.20
2017-08-14T20:06:48.651Z,19.10
2017-08-14T20:09:16.415Z,19.00
2017-08-14T20:11:44.098Z,18.90
2017-08-14T20:14:12.088Z,18.80
2017-08-14T20:16:39.844Z,18.70
2017-08-14T20:19:07.799Z,18.60
2017-08-14T20:21:35.711Z,18.60
2017-08-14T20:24:03.930Z,18.50
2017-08-14T20:26:32.016Z,18.40
2017-08-14T20:28:59.949Z,18.30
2017-08-14T20:31:27.917Z,18.20
2017-08-14T20:33:55.757Z,18.20
2017-08-14T20:36:23.826Z,18.10
2017-08-14T20:38:51.563Z,18.00
2017-08-14T20:41:19.425Z,18.00
2017-08-14T20:43:47.877Z,17.90
2017-08-14T20:46:15.784Z,17.90
2017-08-14T20:48:43.752Z,17.80
2017-08-14T20:51:11.524Z,17.70
2017-08-14T20:53:39.479Z,17.70
2017-08-14T20:56:07.705Z,17.60
2017-08-14T20:58:35.787Z,17.50
2017-08-14T21:01:03.430Z,17.50
2017-08-14T21:03:31.820Z,17.40
2017-08-14T21:05:59.513Z,17.40
2017-08-14T21:08:27.149Z,17.30
2017-08-14T21:10:55.068Z,17.20
2017-08-14T21:13:22.886Z,17.20
2017-08-14T21:15:50.501Z,17.10
2017-08-14T21:18:19.179Z,17.00
2017-08-14T21:20:48.637Z,16.90
2017-08-14T21:23:18.293Z,16.80
2017-08-14T21:25:45.944Z,16.70
2017-08-14T21:28:14.761Z,16.70
2017-08-14T21:30:44.159Z,16.70
2017-08-14T21:33:13.875Z,16.60
2017-08-14T21:35:42.419Z,16.50
2017-08-14T21:38:10.978Z,16.50
2017-08-14T21:40:41.936Z,16.40
2017-08-14T21:43:10.290Z,16.40
2017-08-14T21:45:39.293Z,16.40
2017-08-14T21:48:07.164Z,16.30
2017-08-14T21:50:34.844Z,16.30
2017-08-14T21:53:02.569Z,16.30
2017-08-14T21:55:30.501Z,16.30
2017-08-14T21:57:59.303Z,16.20
2017-08-14T22:00:27.077Z,16.20
2017-08-14T22:02:54.729Z,16.10
2017-08-14T22:05:23.583Z,15.90
2017-08-14T22:07:51.889Z,15.90
2017-08-14T22:10:20.754Z,15.90
2017-08-14T22:12:48.918Z,15.80
2017-08-14T22:15:16.609Z,15.80
2017-08-14T22:17:44.226Z,15.70
2017-08-14T22:20:11.849Z,15.70
2017-08-14T22:22:39.532Z,15.70
2017-08-14T22:25:07.289Z,15.60
2017-08-14T22:27:34.909Z,15.60
2017-08-14T22:30:02.596Z,15.50
2017-08-14T22:32:30.213Z,15.50
2017-08-14T22:34:58.026Z,15.50
2017-08-14T22:37:25.692Z,15.50
2017-08-14T22:39:53.320Z,15.50
2017-08-14T22:42:20.938Z,15.40
2017-08-14T22:44:48.607Z,15.40
2017-08-14T22:47:16.992Z,15.30
2017-08-14T22:49:45.650Z,15.30
2017-08-14T22:52:13.312Z,15.30
2017-08-14T22:54:40.938Z,15.30
2017-08-14T22:57:08.549Z,15.30
2017-08-14T22:59:36.245Z,15.20
2017-08-14T23:02:03.857Z,15.20
2017-08-14T23:04:31.469Z,15.20
2017-08-14T23:06:59.136Z,15.10
2017-08-14T23:09:26.764Z,15.00
2017-08-14T23:11:54.576Z,15.00
2017-08-14T23:14:22.445Z,15.10
2017-08-14T23:16:50.061Z,15.00
2017-08-14T23:19:17.682Z,15.00
2017-08-14T23:21:45.336Z,15.00
2017-08-14T23:24:12.967Z,14.90
2017-08-14T23:26:40.592Z,15.00
2017-08-14T23:29:08.281Z,14.90
2017-08-14T23:31:35.889Z,14.80
2017-08-14T23:34:03.511Z,14.80
2017-08-14T23:36:31.172Z,14.80
2017-08-14T23:38:58.800Z,14.80
2017-08-14T23:41:26.559Z,14.70
2017-08-14T23:43:54.228Z,14.70
2017-08-14T23:46:21.848Z,14.70
2017-08-14T23:48:49.461Z,14.70
2017-08-14T23:51:17.529Z,14.70
2017-08-14T23:53:45.147Z,14.60
2017-08-14T23:56:13.092Z,14.60
2017-08-14T23:58:40.941Z,14.50
